Time;durP1;ratioP1;P1;durP2;ratioP2;P2;SDS_P1;SDS_P2;PMS_P1;PMS_P2;Temp;Humidity;BMP_temperature;BMP_pressure;BME280_temperature;BME280_humidity;BME280_pressure;Samples;Min_cycle;Max_cycle;Signal;HPM_P1;HPM_P2
2023/12/15 00:00:15;;;;;;;;;;;;;;;;;;5070468;28;19932;-85
2023/12/15 00:02:41;;;;;;;;;;;;;;;;;;5053718;28;19958;-85
2023/12/15 00:05:07;;;;;;;;;;;;;;;;;;5065537;28;19924;-84
2023/12/15 00:07:34;;;;;;;;;;;;;;;;;;5057848;28;20258;-85
2023/12/15 00:10:01;;;;;;;;;;;;;;;;;;5052179;28;20340;-84
2023/12/15 00:12:27;;;;;;;;;;;;;;;;;;5068690;28;19931;-85
2023/12/15 00:14:54;;;;;;;;;;;;;;;;;;5062677;28;19978;-85
2023/12/15 00:17:20;;;;;;;;;;;;;;;;;;5071200;28;19959;-85
2023/12/15 00:19:47;;;;;;;;;;;;;;;;;;5057304;28;20005;-84
2023/12/15 00:22:13;;;;;;;;;;;;;;;;;;5063262;28;19925;-84
2023/12/15 00:24:40;;;;;;;;;;;;;;;;;;5061445;28;19925;-86
2023/12/15 00:27:06;;;;;;;;;;;;;;;;;;5062278;28;19951;-85
2023/12/15 00:29:33;;;;;;;;;;;;;;;;;;5052183;28;20358;-84
2023/12/15 00:31:59;;;;;;;;;;;;;;;;;;5075245;28;19931;-84
2023/12/15 00:34:26;;;;;;;;;;;;;;;;;;5046847;28;19928;-85
2023/12/15 00:36:52;;;;;;;;;;;;;;;;;;5067984;28;20023;-84
2023/12/15 00:39:19;;;;;;;;;;;;;;;;;;5061112;28;19929;-85
2023/12/15 00:41:45;;;;;;;;;;;;;;;;;;5066487;28;19929;-85
2023/12/15 00:44:12;;;;;;;;;;;;;;;;;;5048499;28;19929;-85
2023/12/15 00:46:38;;;;;;;;;;;;;;;;;;5046630;28;19929;-84
2023/12/15 00:49:05;;;;;;;;;;;;;;;;;;5070459;28;19933;-85
2023/12/15 00:51:31;;;;;;;;;;;;;;;;;;5059883;28;19954;-85
2023/12/15 00:53:58;;;;;;;;;;;;;;;;;;5065232;28;19924;-85
2023/12/15 00:56:25;;;;;;;;;;;;;;;;;;5061730;28;20401;-85
2023/12/15 00:58:51;;;;;;;;;;;;;;;;;;5060596;28;20014;-85
2023/12/15 01:01:18;;;;;;;;;;;;;;;;;;5069916;28;19932;-86
2023/12/15 01:03:44;;;;;;;;;;;;;;;;;;5069076;28;19935;-85
2023/12/15 01:06:11;;;;;;;;;;;;;;;;;;5053902;28;19931;-84
2023/12/15 01:08:38;;;;;;;;;;;;;;;;;;5071178;28;19991;-85
2023/12/15 01:11:04;;;;;;;;;;;;;;;;;;5052156;28;20450;-85
2023/12/15 01:13:31;;;;;;;;;;;;;;;;;;5066884;28;19974;-85
2023/12/15 01:15:58;;;;;;;;;;;;;;;;;;5039517;28;19929;-85
2023/12/15 01:18:24;;;;;;;;;;;;;;;;;;5043357;28;19929;-84
2023/12/15 01:20:51;;;;;;;;;;;;;;;;;;5069972;28;19971;-85
2023/12/15 01:23:17;;;;;;;;;;;;;;;;;;5052275;28;20285;-84
2023/12/15 01:25:44;;;;;;;;;;;;;;;;;;5054082;28;19990;-84
2023/12/15 01:28:10;;;;;;;;;;;;;;;;;;5051281;28;19966;-84
2023/12/15 01:30:38;;;;;;;;;;;;;;;;;;5062930;28;19929;-84
2023/12/15 01:33:04;;;;;;;;;;;;;;;;;;5063789;28;19924;-85
2023/12/15 01:35:31;;;;;;;;;;;;;;;;;;5064810;28;20015;-84
2023/12/15 01:37:57;;;;;;;;;;;;;;;;;;5044986;28;19924;-85
2023/12/15 01:40:24;;;;;;;;;;;;;;;;;;5072724;28;20003;-85
2023/12/15 01:42:50;;;;;;;;;;;;;;;;;;5064019;28;19925;-84
2023/12/15 01:45:17;;;;;;;;;;;;;;;;;;5046280;28;19924;-84
2023/12/15 01:47:43;;;;;;;;;;;;;;;;;;5065593;28;19925;-84
2023/12/15 01:50:10;;;;;;;;;;;;;;;;;;5064278;28;20399;-85
2023/12/15 01:52:36;;;;;;;;;;;;;;;;;;5068398;28;20011;-84
2023/12/15 01:55:03;;;;;;;;;;;;;;;;;;5067240;28;19929;-85
2023/12/15 01:57:29;;;;;;;;;;;;;;;;;;5070627;28;19925;-85
2023/12/15 01:59:56;;;;;;;;;;;;;;;;;;5044872;28;19935;-84
2023/12/15 02:02:22;;;;;;;;;;;;;;;;;;5069080;28;19924;-85
2023/12/15 02:04:49;;;;;;;;;;;;;;;;;;5070918;28;19928;-85
2023/12/15 02:07:16;;;;;;;;;;;;;;;;;;5064826;28;19960;-84
2023/12/15 02:09:43;;;;;;;;;;;;;;;;;;5068815;28;19925;-84
2023/12/15 02:12:09;;;;;;;;;;;;;;;;;;5062120;28;19929;-85
2023/12/15 02:14:36;;;;;;;;;;;;;;;;;;5064047;28;19928;-85
2023/12/15 02:17:02;;;;;;;;;;;;;;;;;;5066120;28;20385;-84
2023/12/15 02:19:29;;;;;;;;;;;;;;;;;;5044998;28;20369;-85
2023/12/15 02:21:55;;;;;;;;;;;;;;;;;;5049537;28;19933;-84
2023/12/15 02:24:22;;;;;;;;;;;;;;;;;;5065204;28;19924;-85
2023/12/15 02:26:48;;;;;;;;;;;;;;;;;;5067035;28;19933;-85
2023/12/15 02:29:15;;;;;;;;;;;;;;;;;;5071714;28;19925;-84
2023/12/15 02:31:41;;;;;;;;;;;;;;;;;;5055812;28;20404;-86
2023/12/15 02:34:08;;;;;;;;;;;;;;;;;;5056945;28;19929;-85
2023/12/15 02:36:34;;;;;;;;;;;;;;;;;;5055230;28;19924;-85
2023/12/15 02:39:02;;;;;;;;;;;;;;;;;;5065740;28;19925;-84
2023/12/15 02:41:29;;;;;;;;;;;;;;;;;;5068105;28;19925;-85
2023/12/15 02:43:56;;;;;;;;;;;;;;;;;;5056946;28;19929;-85
2023/12/15 02:46:22;;;;;;;;;;;;;;;;;;5070761;28;19932;-86
2023/12/15 02:48:49;;;;;;;;;;;;;;;;;;5053229;28;20389;-85
2023/12/15 02:51:15;;;;;;;;;;;;;;;;;;5070715;28;20454;-86
2023/12/15 02:53:42;;;;;;;;;;;;;;;;;;5059044;28;19925;-85
2023/12/15 02:56:08;;;;;;;;;;;;;;;;;;5067474;28;20381;-85
2023/12/15 02:58:35;;;;;;;;;;;;;;;;;;5062415;28;19935;-86
2023/12/15 03:01:02;;;;;;;;;;;;;;;;;;5063221;28;19970;-85
2023/12/15 03:03:29;;;;;;;;;;;;;;;;;;5050975;28;19934;-84
2023/12/15 03:05:55;;;;;;;;;;;;;;;;;;5066809;28;19925;-86
2023/12/15 03:08:24;;;;;;;;;;;;;;;;;;5065744;28;19935;-84
2023/12/15 03:10:51;;;;;;;;;;;;;;;;;;5044672;28;20022;-85
2023/12/15 03:13:18;;;;;;;;;;;;;;;;;;5060031;28;19924;-85
2023/12/15 03:15:44;;;;;;;;;;;;;;;;;;5071517;28;19955;-86
2023/12/15 03:18:11;;;;;;;;;;;;;;;;;;5067017;28;19936;-85
2023/12/15 03:20:37;;;;;;;;;;;;;;;;;;5064186;28;20297;-86
2023/12/15 03:23:04;;;;;;;;;;;;;;;;;;5063103;28;20011;-85
2023/12/15 03:25:30;;;;;;;;;;;;;;;;;;5064818;28;19924;-86
2023/12/15 03:27:57;;;;;;;;;;;;;;;;;;5065534;28;19929;-85
2023/12/15 03:30:24;;;;;;;;;;;;;;;;;;5061162;28;20011;-86
2023/12/15 03:32:50;;;;;;;;;;;;;;;;;;5062835;28;19935;-84
2023/12/15 03:35:17;;;;;;;;;;;;;;;;;;5051816;28;19959;-85
2023/12/15 03:37:43;;;;;;;;;;;;;;;;;;5064988;28;19944;-85
2023/12/15 03:40:10;;;;;;;;;;;;;;;;;;5063444;28;19931;-85
2023/12/15 03:42:36;;;;;;;;;;;;;;;;;;5055743;28;20027;-84
2023/12/15 03:45:03;;;;;;;;;;;;;;;;;;5053182;28;19947;-84
2023/12/15 03:47:30;;;;;;;;;;;;;;;;;;5055268;28;19936;-85
2023/12/15 03:49:56;;;;;;;;;;;;;;;;;;5058639;28;19974;-85
2023/12/15 03:52:23;;;;;;;;;;;;;;;;;;5061523;28;20285;-86
2023/12/15 03:54:49;;;;;;;;;;;;;;;;;;5067840;28;20403;-85
2023/12/15 03:57:15;;;;;;;;;;;;;;;;;;5061129;28;19971;-85
2023/12/15 03:59:42;;;;;;;;;;;;;;;;;;5066079;28;19994;-86
2023/12/15 04:02:12;;;;;;;;;;;;;;;;;;5054045;28;20373;-85
2023/12/15 04:04:38;;;;;;;;;;;;;;;;;;5065392;28;19924;-85
2023/12/15 04:07:05;;;;;;;;;;;;;;;;;;5070632;28;19924;-85
2023/12/15 04:09:34;;;;;;;;;;;;;;;;;;5060583;28;19932;-84
2023/12/15 04:12:00;;;;;;;;;;;;;;;;;;5066614;28;19947;-83
2023/12/15 04:14:27;;;;;;;;;;;;;;;;;;5069097;28;20413;-84
2023/12/15 04:16:53;;;;;;;;;;;;;;;;;;5053795;28;19929;-84
2023/12/15 04:19:20;;;;;;;;;;;;;;;;;;5062020;28;20872;-83
2023/12/15 04:21:46;;;;;;;;;;;;;;;;;;5071434;28;20369;-84
2023/12/15 04:24:13;;;;;;;;;;;;;;;;;;5060100;28;19958;-83
2023/12/15 04:26:40;;;;;;;;;;;;;;;;;;5058834;28;19968;-83
2023/12/15 04:29:06;;;;;;;;;;;;;;;;;;5054269;28;19924;-83
2023/12/15 04:31:32;;;;;;;;;;;;;;;;;;5068515;28;19931;-84
2023/12/15 04:33:59;;;;;;;;;;;;;;;;;;5061852;28;19966;-84
2023/12/15 04:36:26;;;;;;;;;;;;;;;;;;5066579;28;19928;-84
2023/12/15 04:38:53;;;;;;;;;;;;;;;;;;5065690;28;20377;-83
2023/12/15 04:41:19;;;;;;;;;;;;;;;;;;5063952;28;19928;-84
2023/12/15 04:43:46;;;;;;;;;;;;;;;;;;5064622;28;19925;-83
2023/12/15 04:46:12;;;;;;;;;;;;;;;;;;5064099;28;19986;-83
2023/12/15 04:48:39;;;;;;;;;;;;;;;;;;5051786;28;19970;-83
2023/12/15 04:51:06;;;;;;;;;;;;;;;;;;5063667;28;19928;-82
2023/12/15 04:53:34;;;;;;;;;;;;;;;;;;5045041;28;19932;-84
2023/12/15 04:56:01;;;;;;;;;;;;;;;;;;5069141;28;20354;-83
2023/12/15 04:58:27;;;;;;;;;;;;;;;;;;5059830;28;19932;-84
2023/12/15 05:00:53;;;;;;;;;;;;;;;;;;5059833;28;19935;-84
2023/12/15 05:03:20;;;;;;;;;;;;;;;;;;5062976;28;19924;-83
2023/12/15 05:05:49;;;;;;;;;;;;;;;;;;5067403;28;19932;-84
2023/12/15 05:08:15;;;;;;;;;;;;;;;;;;5061960;28;19925;-84
2023/12/15 05:10:41;;;;;;;;;;;;;;;;;;5061734;28;20340;-85
2023/12/15 05:13:08;;;;;;;;;;;;;;;;;;5057087;28;19960;-83
2023/12/15 05:15:34;;;;;;;;;;;;;;;;;;5059742;28;19925;-83
2023/12/15 05:18:01;;;;;;;;;;;;;;;;;;5061983;28;20031;-83
2023/12/15 05:20:27;;;;;;;;;;;;;;;;;;5062606;28;19935;-84
2023/12/15 05:22:54;;;;;;;;;;;;;;;;;;5063033;28;19924;-84
2023/12/15 05:25:20;;;;;;;;;;;;;;;;;;5056674;28;19928;-86
2023/12/15 05:27:47;;;;;;;;;;;;;;;;;;5055375;28;19940;-85
2023/12/15 05:30:13;;;;;;;;;;;;;;;;;;5055157;28;19925;-85
2023/12/15 05:32:40;;;;;;;;;;;;;;;;;;5070019;28;19928;-85
2023/12/15 05:35:06;;;;;;;;;;;;;;;;;;5062456;28;20405;-85
2023/12/15 05:37:33;;;;;;;;;;;;;;;;;;5061295;28;19929;-85
2023/12/15 05:40:00;;;;;;;;;;;;;;;;;;5063152;28;19974;-85
2023/12/15 05:42:26;;;;;;;;;;;;;;;;;;5070019;28;20382;-85
2023/12/15 05:44:53;;;;;;;;;;;;;;;;;;5069005;28;19960;-85
2023/12/15 05:47:19;;;;;;;;;;;;;;;;;;5068674;28;19935;-85
2023/12/15 05:49:45;;;;;;;;;;;;;;;;;;5065235;28;20063;-85
2023/12/15 05:52:14;;;;;;;;;;;;;;;;;;5075780;28;19925;-87
2023/12/15 05:54:40;;;;;;;;;;;;;;;;;;5049348;28;19932;-88
2023/12/15 05:57:07;;;;;;;;;;;;;;;;;;5063657;28;19925;-88
2023/12/15 05:59:35;;;;;;;;;;;;;;;;;;5055262;28;19931;-89
2023/12/15 06:02:02;;;;;;;;;;;;;;;;;;5078365;28;19956;-87
2023/12/15 06:04:28;;;;;;;;;;;;;;;;;;5053515;28;19928;-87
2023/12/15 06:06:55;;;;;;;;;;;;;;;;;;5059612;28;19925;-86
2023/12/15 06:09:21;;;;;;;;;;;;;;;;;;5064231;28;19924;-86
2023/12/15 06:11:48;;;;;;;;;;;;;;;;;;5072387;28;20031;-87
2023/12/15 06:14:15;;;;;;;;;;;;;;;;;;5057256;28;19929;-86
2023/12/15 06:16:41;;;;;;;;;;;;;;;;;;5078481;28;19951;-87
2023/12/15 06:19:08;;;;;;;;;;;;;;;;;;5057603;28;19929;-86
2023/12/15 06:21:34;;;;;;;;;;;;;;;;;;5073603;28;19928;-87
2023/12/15 06:24:01;;;;;;;;;;;;;;;;;;5084948;28;19947;-88
2023/12/15 06:26:27;;;;;;;;;;;;;;;;;;5078672;28;19928;-88
2023/12/15 06:28:54;;;;;;;;;;;;;;;;;;5069290;28;20340;-86
2023/12/15 06:31:21;;;;;;;;;;;;;;;;;;5080935;28;19924;-87
2023/12/15 06:33:47;;;;;;;;;;;;;;;;;;5070514;28;19924;-87
2023/12/15 06:36:14;;;;;;;;;;;;;;;;;;5077447;28;19951;-86
2023/12/15 06:38:44;;;;;;;;;;;;;;;;;;5073431;28;19947;-86
2023/12/15 06:41:11;;;;;;;;;;;;;;;;;;5082492;28;20472;-87
2023/12/15 06:43:37;;;;;;;;;;;;;;;;;;5087190;28;19925;-85
2023/12/15 06:46:04;;;;;;;;;;;;;;;;;;5085352;28;20015;-85
2023/12/15 06:48:30;;;;;;;;;;;;;;;;;;5086389;28;19935;-87
2023/12/15 06:50:57;;;;;;;;;;;;;;;;;;5087547;28;19928;-87
2023/12/15 06:53:24;;;;;;;;;;;;;;;;;;5078179;28;19916;-86
2023/12/15 06:55:50;;;;;;;;;;;;;;;;;;5071613;28;19925;-86
2023/12/15 06:58:16;;;;;;;;;;;;;;;;;;5074179;28;19925;-87
2023/12/15 07:00:43;;;;;;;;;;;;;;;;;;5067304;28;19968;-87
2023/12/15 07:03:09;;;;;;;;;;;;;;;;;;5058921;28;19932;-86
2023/12/15 07:05:36;;;;;;;;;;;;;;;;;;5069154;28;19925;-86
2023/12/15 07:08:02;;;;;;;;;;;;;;;;;;5068742;28;20018;-86
2023/12/15 07:10:31;;;;;;;;;;;;;;;;;;5065250;28;22115;-86
2023/12/15 07:12:57;;;;;;;;;;;;;;;;;;5050738;28;20078;-86
2023/12/15 07:15:27;;;;;;;;;;;;;;;;;;5068475;28;20015;-86
2023/12/15 07:17:54;;;;;;;;;;;;;;;;;;5064112;28;19925;-88
2023/12/15 07:20:24;;;;;;;;;;;;;;;;;;5072532;28;19932;-88
2023/12/15 07:22:51;;;;;;;;;;;;;;;;;;5054849;28;19995;-87
2023/12/15 07:25:17;;;;;;;;;;;;;;;;;;5072919;28;19928;-87
2023/12/15 07:27:44;;;;;;;;;;;;;;;;;;5071799;28;20348;-87
2023/12/15 07:30:10;;;;;;;;;;;;;;;;;;5063528;28;19970;-88
2023/12/15 07:32:37;;;;;;;;;;;;;;;;;;5071338;28;19925;-86
2023/12/15 07:35:04;;;;;;;;;;;;;;;;;;5061358;28;20297;-86
2023/12/15 07:37:36;;;;;;;;;;;;;;;;;;5049563;28;20309;-87
2023/12/15 07:40:03;;;;;;;;;;;;;;;;;;5065358;28;19925;-87
2023/12/15 07:42:30;;;;;;;;;;;;;;;;;;5064373;28;19928;-87
2023/12/15 07:44:56;;;;;;;;;;;;;;;;;;5054821;28;19925;-87
2023/12/15 07:47:23;;;;;;;;;;;;;;;;;;5067255;28;19959;-87
2023/12/15 07:49:49;;;;;;;;;;;;;;;;;;5066235;28;20011;-87
2023/12/15 07:52:15;;;;;;;;;;;;;;;;;;5072949;28;19925;-87
2023/12/15 07:54:42;;;;;;;;;;;;;;;;;;5065085;28;19924;-86
2023/12/15 07:57:08;;;;;;;;;;;;;;;;;;5067622;28;19958;-87
2023/12/15 07:59:35;;;;;;;;;;;;;;;;;;5064870;28;19982;-87
2023/12/15 08:02:03;;;;;;;;;;;;;;;;;;5055789;28;19982;-88
2023/12/15 08:04:29;;;;;;;;;;;;;;;;;;5063250;28;19925;-87
2023/12/15 08:06:57;;;;;;;;;;;;;;;;;;5076560;28;19935;-87
2023/12/15 08:09:24;;;;;;;;;;;;;;;;;;5071709;28;19925;-86
2023/12/15 08:11:51;;;;;;;;;;;;;;;;;;5070351;28;20399;-88
2023/12/15 08:14:17;;;;;;;;;;;;;;;;;;5041363;28;19929;-89
2023/12/15 08:16:44;;;;;;;;;;;;;;;;;;5045999;28;20344;-87
2023/12/15 08:19:10;;;;;;;;;;;;;;;;;;5061807;28;19983;-87
2023/12/15 08:21:37;;;;;;;;;;;;;;;;;;5058783;28;19928;-87
2023/12/15 08:24:04;;;;;;;;;;;;;;;;;;5047130;28;20362;-88
2023/12/15 08:26:30;;;;;;;;;;;;;;;;;;5058830;28;19964;-86
2023/12/15 08:28:57;;;;;;;;;;;;;;;;;;5066687;28;19925;-88
2023/12/15 08:31:23;;;;;;;;;;;;;;;;;;5063231;28;20027;-90
2023/12/15 08:33:50;;;;;;;;;;;;;;;;;;5063520;28;20282;-87
2023/12/15 08:36:16;;;;;;;;;;;;;;;;;;5066170;28;19925;-87
2023/12/15 08:38:43;;;;;;;;;;;;;;;;;;5069423;28;19936;-87
2023/12/15 08:41:10;;;;;;;;;;;;;;;;;;5049649;28;19929;-87
2023/12/15 08:43:36;;;;;;;;;;;;;;;;;;5059792;28;19946;-88
2023/12/15 08:46:03;;;;;;;;;;;;;;;;;;5052791;28;19924;-88
2023/12/15 08:48:30;;;;;;;;;;;;;;;;;;5064396;28;19936;-87
2023/12/15 08:50:56;;;;;;;;;;;;;;;;;;5064446;28;20006;-88
2023/12/15 08:53:23;;;;;;;;;;;;;;;;;;5069998;28;19978;-88
2023/12/15 08:55:49;;;;;;;;;;;;;;;;;;5062716;28;19924;-88
2023/12/15 08:58:16;;;;;;;;;;;;;;;;;;5070558;28;20378;-89
2023/12/15 09:00:42;;;;;;;;;;;;;;;;;;5069460;28;20269;-87
2023/12/15 09:03:09;;;;;;;;;;;;;;;;;;5058055;28;19932;-88
2023/12/15 09:05:35;;;;;;;;;;;;;;;;;;5061997;28;20292;-86
2023/12/15 09:08:21;;;;;;;;;;;;;;;;;;5048885;28;20314;-88
2023/12/15 09:10:50;;;;;;;;;;;;;;;;;;5063762;28;20488;-87
2023/12/15 09:13:17;;;;;;;;;;;;;;;;;;5052329;28;20435;-88
2023/12/15 09:15:43;;;;;;;;;;;;;;;;;;5043292;28;19975;-88
2023/12/15 09:18:10;;;;;;;;;;;;;;;;;;5052510;28;19924;-88
2023/12/15 09:20:36;;;;;;;;;;;;;;;;;;5062285;28;19931;-88
2023/12/15 09:23:03;;;;;;;;;;;;;;;;;;5053658;28;19924;-86
2023/12/15 09:25:29;;;;;;;;;;;;;;;;;;5061349;28;19963;-87
2023/12/15 09:27:56;;;;;;;;;;;;;;;;;;5061657;28;20334;-88
2023/12/15 09:30:22;;;;;;;;;;;;;;;;;;5047964;28;19924;-87
2023/12/15 09:32:49;;;;;;;;;;;;;;;;;;5069620;28;19924;-86
2023/12/15 09:35:17;;;;;;;;;;;;;;;;;;5067653;28;19936;-88
2023/12/15 09:37:44;;;;;;;;;;;;;;;;;;5063909;28;20007;-87
2023/12/15 09:40:10;;;;;;;;;;;;;;;;;;5063854;28;20359;-87
2023/12/15 09:42:36;;;;;;;;;;;;;;;;;;5066552;28;19971;-88
2023/12/15 09:45:03;;;;;;;;;;;;;;;;;;5068901;28;19924;-87
2023/12/15 09:47:32;;;;;;;;;;;;;;;;;;5042436;28;20385;-87
2023/12/15 09:49:59;;;;;;;;;;;;;;;;;;5065994;28;19928;-87
2023/12/15 09:52:25;;;;;;;;;;;;;;;;;;5058144;28;19929;-88
2023/12/15 09:54:52;;;;;;;;;;;;;;;;;;5052791;28;19925;-87
2023/12/15 09:57:18;;;;;;;;;;;;;;;;;;5060764;28;19929;-88
2023/12/15 09:59:45;;;;;;;;;;;;;;;;;;5051255;28;19925;-88
2023/12/15 10:02:11;;;;;;;;;;;;;;;;;;5070329;28;19924;-88
2023/12/15 10:04:38;;;;;;;;;;;;;;;;;;5066481;28;19931;-89
2023/12/15 10:07:04;;;;;;;;;;;;;;;;;;5067526;28;19974;-88
2023/12/15 10:09:31;;;;;;;;;;;;;;;;;;5067522;28;19929;-87
2023/12/15 10:11:57;;;;;;;;;;;;;;;;;;5045282;28;19924;-87
2023/12/15 10:14:24;;;;;;;;;;;;;;;;;;5049660;28;19925;-88
2023/12/15 10:16:50;;;;;;;;;;;;;;;;;;5068138;28;19932;-88
2023/12/15 10:19:19;;;;;;;;;;;;;;;;;;5065889;28;19933;-87
2023/12/15 10:21:46;;;;;;;;;;;;;;;;;;5068744;28;19931;-88
2023/12/15 10:24:13;;;;;;;;;;;;;;;;;;5053256;28;19925;-88
2023/12/15 10:26:39;;;;;;;;;;;;;;;;;;5061617;28;19940;-88
2023/12/15 10:29:06;;;;;;;;;;;;;;;;;;5064206;28;20278;-88
2023/12/15 10:31:32;;;;;;;;;;;;;;;;;;5052796;28;19967;-88
2023/12/15 10:33:59;;;;;;;;;;;;;;;;;;5060311;28;20304;-88
2023/12/15 10:36:30;;;;;;;;;;;;;;;;;;5066622;28;19978;-89
2023/12/15 10:38:57;;;;;;;;;;;;;;;;;;5061586;28;20025;-87
2023/12/15 10:41:24;;;;;;;;;;;;;;;;;;5064579;28;20377;-88
2023/12/15 10:43:50;;;;;;;;;;;;;;;;;;5063714;28;19994;-87
2023/12/15 10:46:17;;;;;;;;;;;;;;;;;;5066585;28;19958;-86
2023/12/15 10:48:45;;;;;;;;;;;;;;;;;;5067363;28;20440;-87
2023/12/15 10:51:12;;;;;;;;;;;;;;;;;;5063949;28;20019;-87
2023/12/15 10:53:40;;;;;;;;;;;;;;;;;;5064789;28;20282;-87
2023/12/15 10:56:06;;;;;;;;;;;;;;;;;;5064034;28;20404;-86
2023/12/15 10:58:33;;;;;;;;;;;;;;;;;;5073579;28;20403;-87
2023/12/15 11:00:59;;;;;;;;;;;;;;;;;;5054270;28;19936;-87
2023/12/15 11:03:26;;;;;;;;;;;;;;;;;;5067203;28;20369;-87
2023/12/15 11:05:52;;;;;;;;;;;;;;;;;;5067807;28;20707;-88
2023/12/15 11:08:19;;;;;;;;;;;;;;;;;;5069302;28;19936;-87
2023/12/15 11:10:46;;;;;;;;;;;;;;;;;;5072229;28;19978;-86
2023/12/15 11:13:13;;;;;;;;;;;;;;;;;;5054406;28;20408;-89
2023/12/15 11:15:40;;;;;;;;;;;;;;;;;;5055017;28;20006;-88
2023/12/15 11:18:07;;;;;;;;;;;;;;;;;;5063162;28;19925;-86
2023/12/15 11:20:35;;;;;;;;;;;;;;;;;;5070833;28;19929;-87
2023/12/15 11:23:02;;;;;;;;;;;;;;;;;;5073421;28;19924;-86
2023/12/15 11:25:28;;;;;;;;;;;;;;;;;;5063534;28;20047;-87
2023/12/15 11:27:55;;;;;;;;;;;;;;;;;;5071380;28;19924;-88
2023/12/15 11:30:21;;;;;;;;;;;;;;;;;;5063696;28;19963;-87
2023/12/15 11:32:48;;;;;;;;;;;;;;;;;;5069379;28;20389;-86
2023/12/15 11:35:14;;;;;;;;;;;;;;;;;;5054091;28;20008;-88
2023/12/15 11:37:41;;;;;;;;;;;;;;;;;;5070432;28;20278;-87
2023/12/15 11:40:07;;;;;;;;;;;;;;;;;;5064301;28;19967;-88
2023/12/15 11:42:34;;;;;;;;;;;;;;;;;;5046965;28;19924;-86
2023/12/15 11:45:00;;;;;;;;;;;;;;;;;;5070930;28;19928;-87
2023/12/15 11:47:27;;;;;;;;;;;;;;;;;;5070106;28;19924;-86
2023/12/15 11:49:54;;;;;;;;;;;;;;;;;;5064098;28;19931;-86
2023/12/15 11:52:20;;;;;;;;;;;;;;;;;;5070475;28;19924;-87
2023/12/15 11:54:47;;;;;;;;;;;;;;;;;;5061118;28;19925;-86
2023/12/15 11:57:13;;;;;;;;;;;;;;;;;;5069533;28;19929;-87
2023/12/15 11:59:39;;;;;;;;;;;;;;;;;;5069945;28;20389;-86
2023/12/15 12:02:06;;;;;;;;;;;;;;;;;;5061294;28;19932;-86
2023/12/15 12:04:32;;;;;;;;;;;;;;;;;;5067478;28;19928;-85
2023/12/15 12:06:59;;;;;;;;;;;;;;;;;;5050953;28;20403;-86
2023/12/15 12:09:25;;;;;;;;;;;;;;;;;;5053290;28;19925;-89
2023/12/15 12:11:55;;;;;;;;;;;;;;;;;;5070720;28;19967;-89
2023/12/15 12:14:22;;;;;;;;;;;;;;;;;;5057355;28;19924;-88
2023/12/15 12:16:49;;;;;;;;;;;;;;;;;;5065725;28;19924;-89
2023/12/15 12:19:15;;;;;;;;;;;;;;;;;;5063515;28;20333;-89
2023/12/15 12:21:43;;;;;;;;;;;;;;;;;;5049356;28;20381;-89
2023/12/15 12:24:09;;;;;;;;;;;;;;;;;;5060313;28;19978;-87
2023/12/15 12:26:36;;;;;;;;;;;;;;;;;;5066273;28;19924;-87
2023/12/15 12:29:02;;;;;;;;;;;;;;;;;;5063419;28;20435;-88
2023/12/15 12:31:29;;;;;;;;;;;;;;;;;;5067081;28;19978;-88
2023/12/15 12:33:55;;;;;;;;;;;;;;;;;;5070913;28;19952;-88
2023/12/15 12:36:22;;;;;;;;;;;;;;;;;;5066315;28;19966;-87
2023/12/15 12:38:49;;;;;;;;;;;;;;;;;;5048866;28;20365;-89
2023/12/15 12:41:16;;;;;;;;;;;;;;;;;;5048447;28;20028;-87
2023/12/15 12:43:42;;;;;;;;;;;;;;;;;;5065142;28;20614;-88
2023/12/15 12:46:10;;;;;;;;;;;;;;;;;;5064416;28;20407;-87
2023/12/15 12:48:37;;;;;;;;;;;;;;;;;;5051764;28;19956;-88
2023/12/15 12:51:04;;;;;;;;;;;;;;;;;;5067678;28;19947;-87
2023/12/15 12:53:31;;;;;;;;;;;;;;;;;;5071671;28;19928;-88
2023/12/15 12:55:57;;;;;;;;;;;;;;;;;;5062783;28;21123;-88
2023/12/15 12:58:24;;;;;;;;;;;;;;;;;;5057188;28;20298;-89
2023/12/15 13:00:52;;;;;;;;;;;;;;;;;;5052626;28;20370;-86
2023/12/15 13:03:19;;;;;;;;;;;;;;;;;;5063846;28;19975;-88
2023/12/15 13:05:46;;;;;;;;;;;;;;;;;;5052155;28;19925;-88
2023/12/15 13:08:14;;;;;;;;;;;;;;;;;;5065247;28;19931;-86
2023/12/15 13:10:40;;;;;;;;;;;;;;;;;;5065294;28;19928;-88
2023/12/15 13:13:08;;;;;;;;;;;;;;;;;;5048294;28;20277;-88
2023/12/15 13:15:35;;;;;;;;;;;;;;;;;;5071587;28;19924;-88
2023/12/15 13:18:02;;;;;;;;;;;;;;;;;;5053259;28;20092;-89
2023/12/15 13:20:29;;;;;;;;;;;;;;;;;;5068951;28;20419;-90
2023/12/15 13:22:55;;;;;;;;;;;;;;;;;;5054275;28;20393;-88
2023/12/15 13:25:23;;;;;;;;;;;;;;;;;;5072105;28;19928;-88
2023/12/15 13:27:51;;;;;;;;;;;;;;;;;;5071296;28;19974;-89
2023/12/15 13:30:21;;;;;;;;;;;;;;;;;;5053391;28;20279;-88
2023/12/15 13:32:47;;;;;;;;;;;;;;;;;;5059169;28;19932;-88
2023/12/15 13:35:15;;;;;;;;;;;;;;;;;;5071244;28;20403;-87
2023/12/15 13:37:41;;;;;;;;;;;;;;;;;;5068230;28;20416;-88
2023/12/15 13:40:11;;;;;;;;;;;;;;;;;;5069013;28;20028;-88
2023/12/15 13:42:39;;;;;;;;;;;;;;;;;;5067189;28;19928;-87
2023/12/15 13:45:09;;;;;;;;;;;;;;;;;;5052708;28;19932;-88
2023/12/15 13:47:36;;;;;;;;;;;;;;;;;;5053077;28;19958;-87
2023/12/15 13:50:04;;;;;;;;;;;;;;;;;;5058217;28;19925;-87
2023/12/15 13:52:36;;;;;;;;;;;;;;;;;;5065813;28;20282;-86
2023/12/15 13:55:03;;;;;;;;;;;;;;;;;;5065362;28;19925;-88
2023/12/15 13:57:31;;;;;;;;;;;;;;;;;;5063886;28;19924;-88
2023/12/15 13:59:59;;;;;;;;;;;;;;;;;;5057923;28;19925;-89
2023/12/15 14:02:35;;;;;;;;;;;;;;;;;;5060973;28;19925;-86
2023/12/15 14:05:05;;;;;;;;;;;;;;;;;;5053830;28;19924;-87
2023/12/15 14:07:32;;;;;;;;;;;;;;;;;;5069920;28;19924;-88
2023/12/15 14:10:02;;;;;;;;;;;;;;;;;;5067816;28;19925;-87
2023/12/15 14:12:31;;;;;;;;;;;;;;;;;;5046806;28;19924;-87
2023/12/15 14:14:57;;;;;;;;;;;;;;;;;;5054304;28;19936;-88
2023/12/15 14:17:28;;;;;;;;;;;;;;;;;;5069873;28;19924;-87
2023/12/15 14:19:55;;;;;;;;;;;;;;;;;;5056319;28;19924;-87
2023/12/15 14:22:24;;;;;;;;;;;;;;;;;;5069267;28;19948;-86
2023/12/15 14:24:50;;;;;;;;;;;;;;;;;;5055058;28;19925;-86
2023/12/15 14:27:19;;;;;;;;;;;;;;;;;;5069369;28;19943;-88
2023/12/15 14:29:48;;;;;;;;;;;;;;;;;;5066975;28;19924;-87
2023/12/15 14:32:15;;;;;;;;;;;;;;;;;;5069230;28;20377;-89
2023/12/15 14:34:42;;;;;;;;;;;;;;;;;;5073655;28;19924;-86
2023/12/15 14:37:09;;;;;;;;;;;;;;;;;;5071820;28;19925;-88
2023/12/15 14:39:37;;;;;;;;;;;;;;;;;;5066476;28;20408;-86
2023/12/15 14:42:05;;;;;;;;;;;;;;;;;;5047888;28;20376;-86
2023/12/15 14:44:32;;;;;;;;;;;;;;;;;;5055986;28;19998;-87
2023/12/15 14:47:00;;;;;;;;;;;;;;;;;;5064695;28;20374;-86
2023/12/15 14:49:29;;;;;;;;;;;;;;;;;;5071815;28;19928;-86
2023/12/15 14:51:56;;;;;;;;;;;;;;;;;;5064763;28;20019;-86
2023/12/15 14:54:23;;;;;;;;;;;;;;;;;;5067209;28;19925;-86
2023/12/15 14:56:49;;;;;;;;;;;;;;;;;;5066340;28;19963;-85
2023/12/15 14:59:16;;;;;;;;;;;;;;;;;;5070279;28;20015;-85
2023/12/15 15:01:42;;;;;;;;;;;;;;;;;;5065417;28;19925;-85
2023/12/15 15:04:13;;;;;;;;;;;;;;;;;;5061138;28;20360;-86
2023/12/15 15:06:41;;;;;;;;;;;;;;;;;;5055836;28;20354;-85
2023/12/15 15:09:12;;;;;;;;;;;;;;;;;;5063039;28;20415;-87
2023/12/15 15:11:38;;;;;;;;;;;;;;;;;;5067525;28;19924;-86
2023/12/15 15:14:05;;;;;;;;;;;;;;;;;;5061244;28;19931;-85
2023/12/15 15:16:33;;;;;;;;;;;;;;;;;;5065992;28;20274;-84
2023/12/15 15:18:59;;;;;;;;;;;;;;;;;;5070003;28;19932;-84
2023/12/15 15:21:26;;;;;;;;;;;;;;;;;;5062974;28;19975;-85
2023/12/15 15:23:59;;;;;;;;;;;;;;;;;;5058702;28;19924;-83
2023/12/15 15:26:27;;;;;;;;;;;;;;;;;;5067792;28;19932;-84
2023/12/15 15:28:54;;;;;;;;;;;;;;;;;;5062404;28;20339;-84
2023/12/15 15:31:22;;;;;;;;;;;;;;;;;;5069984;28;19928;-85
2023/12/15 15:33:48;;;;;;;;;;;;;;;;;;5071892;28;19924;-84
2023/12/15 15:36:17;;;;;;;;;;;;;;;;;;5069648;28;19978;-85
2023/12/15 15:38:46;;;;;;;;;;;;;;;;;;5070821;28;19931;-84
2023/12/15 15:41:27;;;;;;;;;;;;;;;;;;5071356;28;19925;-84
2023/12/15 15:44:09;;;;;;;;;;;;;;;;;;5069864;28;19932;-85
2023/12/15 15:46:45;;;;;;;;;;;;;;;;;;5067017;28;19990;-84
2023/12/15 15:49:12;;;;;;;;;;;;;;;;;;5062193;28;19955;-85
2023/12/15 15:51:43;;;;;;;;;;;;;;;;;;5070341;28;20019;-84
2023/12/15 15:54:10;;;;;;;;;;;;;;;;;;5064596;28;19936;-83
2023/12/15 15:56:40;;;;;;;;;;;;;;;;;;5063180;28;19928;-83
2023/12/15 15:59:07;;;;;;;;;;;;;;;;;;5069387;28;19959;-84
2023/12/15 16:01:35;;;;;;;;;;;;;;;;;;5063827;28;20374;-83
2023/12/15 16:04:09;;;;;;;;;;;;;;;;;;5069816;28;19925;-84
2023/12/15 16:06:36;;;;;;;;;;;;;;;;;;5068932;28;19929;-84
2023/12/15 16:09:03;;;;;;;;;;;;;;;;;;5058241;28;19932;-83
2023/12/15 16:11:30;;;;;;;;;;;;;;;;;;5071284;28;19928;-83
2023/12/15 16:13:56;;;;;;;;;;;;;;;;;;5068194;28;19924;-84
2023/12/15 16:16:27;;;;;;;;;;;;;;;;;;5062297;28;19925;-83
2023/12/15 16:18:55;;;;;;;;;;;;;;;;;;5057232;28;20389;-83
2023/12/15 16:21:22;;;;;;;;;;;;;;;;;;5063593;28;19924;-84
2023/12/15 16:23:48;;;;;;;;;;;;;;;;;;5060378;28;19924;-83
2023/12/15 16:26:16;;;;;;;;;;;;;;;;;;5068875;28;19974;-83
2023/12/15 16:28:42;;;;;;;;;;;;;;;;;;5068640;28;20412;-84
2023/12/15 16:31:09;;;;;;;;;;;;;;;;;;5056263;28;19928;-84
2023/12/15 16:33:36;;;;;;;;;;;;;;;;;;5046260;28;19956;-84
2023/12/15 16:36:02;;;;;;;;;;;;;;;;;;5069685;28;19966;-82
2023/12/15 16:38:30;;;;;;;;;;;;;;;;;;5063178;28;19940;-83
2023/12/15 16:40:59;;;;;;;;;;;;;;;;;;5071253;28;19975;-83
2023/12/15 16:43:26;;;;;;;;;;;;;;;;;;5064481;28;19975;-82